PWSweather.com
Personal Weather Stations
Station Observations
SHAHALMS1
Eftra, Falkenberg, HA

EftraFalkenberg, HA

Lat: 56.85, Lon: 12.65

Elevation: 140

Station Type:

http://hem.passagen.se/risarp101

High Low Average
Temperature 63.9°F17.7°C 52.9°F11.6°C 58.7°F14.8°C
Dew Point 56.7°F13.7°C 47.9°F8.8°C 51.6°F10.9°C
Winds 10.1 mph 16.3 kmh 0.7 mph 1.1 kmh 5.0 mph S8.0 kmh S
Wind Gusts 27.2 mph43.8 kmh 1.4 mph2.3 kmh 13.0 mph20.9 kmh
Humidity 89% 64% 78%
Pressure 29.98 in1015.2 mb 29.77 in1008.1 mb -
Precipitation 0.05 in1.3 mm - -
Hour Temp Dew Point Humidity Winds Wind Gusts Pressure Precip Precip Rate Daily Precip Total
12:02 AM 59.7°F15.4°C 56.5°F13.6°C 89% 4.1 mph S6.6 kmh S 5.0 mph8.0 kmh 29.80 in1009.1 mb 0.00 in0.0 mm 0.00 in0.0 mm 0.05 in1.3 mm
12:12 AM 59.5°F15.3°C 56.3°F13.5°C 89% 2.0 mph S3.2 kmh S 2.5 mph4.0 kmh 29.80 in1009.1 mb 0.00 in0.0 mm 0.00 in0.0 mm 0.05 in1.3 mm
12:15 AM 58.1°F14.5°C 54.6°F12.6°C 88% 3.7 mph SSW6.0 kmh SSW 10.4 mph16.7 kmh 29.77 in1008.1 mb 0.00 in0.0 mm 0.00 in0.0 mm 0.05 in1.3 mm
12:18 AM 59.0°F15.0°C 55.8°F13.2°C 89% 6.1 mph W9.8 kmh W 7.5 mph12.1 kmh 29.80 in1009.1 mb 0.00 in0.0 mm 0.00 in0.0 mm 0.05 in1.3 mm
12:22 AM 59.4°F15.2°C 56.1°F13.4°C 89% 1.6 mph S2.6 kmh S 2.5 mph4.0 kmh 29.80 in1009.1 mb 0.00 in0.0 mm 0.00 in0.0 mm 0.05 in1.3 mm
12:30 AM 57.7°F14.3°C 53.9°F12.2°C 87% 3.7 mph SW6.0 kmh SW 10.4 mph16.7 kmh 29.80 in1009.1 mb 0.00 in0.0 mm 0.00 in0.0 mm 0.05 in1.3 mm
12:32 AM 59.2°F15.1°C 55.9°F13.3°C 89% 4.7 mph S7.6 kmh S 5.7 mph9.2 kmh 29.80 in1009.1 mb 0.00 in0.0 mm 0.00 in0.0 mm 0.05 in1.3 mm
12:45 AM 57.6°F14.2°C 53.7°F12.1°C 87% 2.9 mph WSW4.7 kmh WSW 10.4 mph16.7 kmh 29.80 in1009.1 mb 0.00 in0.0 mm 0.00 in0.0 mm 0.05 in1.3 mm
01:00 AM 57.6°F14.2°C 53.7°F12.1°C 87% 2.1 mph WSW3.4 kmh WSW 10.4 mph16.7 kmh 29.80 in1009.1 mb 0.00 in0.0 mm 0.00 in0.0 mm 0.05 in1.3 mm
01:15 AM 57.2°F14.0°C 53.0°F11.7°C 86% 2.9 mph WSW4.7 kmh WSW 9.3 mph15.0 kmh 29.80 in1009.1 mb 0.00 in0.0 mm 0.00 in0.0 mm 0.05 in1.3 mm
01:30 AM 56.7°F13.7°C 52.2°F11.2°C 85% 3.4 mph WSW5.5 kmh WSW 8.9 mph14.3 kmh 29.80 in1009.1 mb 0.00 in0.0 mm 0.00 in0.0 mm 0.05 in1.3 mm
01:45 AM 56.1°F13.4°C 51.4°F10.8°C 84% 1.6 mph WSW2.6 kmh WSW 6.8 mph10.9 kmh 29.80 in1009.1 mb 0.00 in0.0 mm 0.00 in0.0 mm 0.05 in1.3 mm
02:00 AM 55.0°F12.8°C 50.0°F10.0°C 83% 1.7 mph S2.7 kmh S 8.9 mph14.3 kmh 29.83 in1010.2 mb 0.00 in0.0 mm 0.00 in0.0 mm 0.05 in1.3 mm
02:15 AM 54.5°F12.5°C 49.4°F9.7°C 83% 1.5 mph S2.4 kmh S 8.9 mph14.3 kmh 29.83 in1010.2 mb 0.00 in0.0 mm 0.00 in0.0 mm 0.05 in1.3 mm
02:30 AM 54.1°F12.3°C 49.4°F9.7°C 84% 0.7 mph S1.1 kmh S 4.7 mph7.6 kmh 29.83 in1010.2 mb 0.00 in0.0 mm 0.00 in0.0 mm 0.05 in1.3 mm
02:45 AM 54.1°F12.3°C 49.4°F9.7°C 84% 2.4 mph S3.9 kmh S 7.5 mph12.1 kmh 29.83 in1010.2 mb 0.00 in0.0 mm 0.00 in0.0 mm 0.05 in1.3 mm
03:00 AM 54.1°F12.3°C 49.4°F9.7°C 84% 2.7 mph S4.3 kmh S 7.9 mph12.7 kmh 29.83 in1010.2 mb 0.00 in0.0 mm 0.00 in0.0 mm 0.05 in1.3 mm
03:15 AM 54.1°F12.3°C 49.1°F9.5°C 83% 1.9 mph S3.1 kmh S 9.7 mph15.6 kmh 29.83 in1010.2 mb 0.00 in0.0 mm 0.00 in0.0 mm 0.05 in1.3 mm
03:30 AM 54.1°F12.3°C 49.1°F9.5°C 83% 2.2 mph S3.5 kmh S 5.7 mph9.2 kmh 29.83 in1010.2 mb 0.00 in0.0 mm 0.00 in0.0 mm 0.05 in1.3 mm
03:45 AM 54.1°F12.3°C 49.1°F9.5°C 83% 2.9 mph S4.7 kmh S 6.8 mph10.9 kmh 29.83 in1010.2 mb 0.00 in0.0 mm 0.00 in0.0 mm 0.05 in1.3 mm
04:00 AM 53.8°F12.1°C 48.4°F9.1°C 82% 3.5 mph S5.6 kmh S 10.0 mph16.1 kmh 29.83 in1010.2 mb 0.00 in0.0 mm 0.00 in0.0 mm 0.05 in1.3 mm
04:15 AM 54.0°F12.2°C 48.9°F9.4°C 83% 2.5 mph S4.0 kmh S 7.9 mph12.7 kmh 29.83 in1010.2 mb 0.00 in0.0 mm 0.00 in0.0 mm 0.05 in1.3 mm
04:30 AM 53.8°F12.1°C 48.4°F9.1°C 82% 3.0 mph S4.8 kmh S 8.9 mph14.3 kmh 29.83 in1010.2 mb 0.00 in0.0 mm 0.00 in0.0 mm 0.05 in1.3 mm
04:45 AM 53.4°F11.9°C 48.1°F8.9°C 82% 0.7 mph S1.1 kmh S 4.3 mph6.9 kmh 29.83 in1010.2 mb 0.00 in0.0 mm 0.00 in0.0 mm 0.05 in1.3 mm
05:00 AM 53.2°F11.8°C 47.9°F8.8°C 82% 3.1 mph S5.0 kmh S 9.3 mph15.0 kmh 29.83 in1010.2 mb 0.00 in0.0 mm 0.00 in0.0 mm 0.05 in1.3 mm
05:15 AM 53.1°F11.7°C 48.0°F8.9°C 83% 0.8 mph SE1.3 kmh SE 5.4 mph8.7 kmh 29.83 in1010.2 mb 0.00 in0.0 mm 0.00 in0.0 mm 0.05 in1.3 mm
05:30 AM 52.9°F11.6°C 47.9°F8.8°C 83% 2.5 mph ESE4.0 kmh ESE 8.6 mph13.8 kmh 29.83 in1010.2 mb 0.00 in0.0 mm 0.00 in0.0 mm 0.05 in1.3 mm
05:45 AM 53.1°F11.7°C 48.4°F9.1°C 84% 6.0 mph ESE9.7 kmh ESE 12.2 mph19.6 kmh 29.83 in1010.2 mb 0.00 in0.0 mm 0.00 in0.0 mm 0.05 in1.3 mm
06:00 AM 53.2°F11.8°C 48.5°F9.2°C 84% 6.6 mph SE10.6 kmh SE 11.8 mph19.0 kmh 29.83 in1010.2 mb 0.00 in0.0 mm 0.00 in0.0 mm 0.05 in1.3 mm
06:15 AM 54.0°F12.2°C 49.6°F9.8°C 85% 6.5 mph ESE10.5 kmh ESE 11.5 mph18.5 kmh 29.83 in1010.2 mb 0.00 in0.0 mm 0.00 in0.0 mm 0.05 in1.3 mm
06:30 AM 54.3°F12.4°C 49.9°F9.9°C 85% 3.9 mph E6.3 kmh E 8.6 mph13.8 kmh 29.83 in1010.2 mb 0.00 in0.0 mm 0.00 in0.0 mm 0.05 in1.3 mm
06:45 AM 55.2°F12.9°C 51.1°F10.6°C 86% 4.9 mph ESE7.9 kmh ESE 10.4 mph16.7 kmh 29.86 in1011.2 mb 0.00 in0.0 mm 0.00 in0.0 mm 0.05 in1.3 mm
07:00 AM 56.3°F13.5°C 51.8°F11.0°C 85% 4.7 mph ESE7.6 kmh ESE 9.7 mph15.6 kmh 29.83 in1010.2 mb 0.00 in0.0 mm 0.00 in0.0 mm 0.05 in1.3 mm
07:15 AM 57.2°F14.0°C 52.4°F11.3°C 84% 4.5 mph SE7.2 kmh SE 7.9 mph12.7 kmh 29.86 in1011.2 mb 0.00 in0.0 mm 0.00 in0.0 mm 0.05 in1.3 mm
07:30 AM 57.0°F13.9°C 51.6°F10.9°C 82% 3.4 mph ESE5.5 kmh ESE 13.6 mph21.9 kmh 29.86 in1011.2 mb 0.00 in0.0 mm 0.00 in0.0 mm 0.05 in1.3 mm
07:45 AM 57.6°F14.2°C 52.1°F11.2°C 82% 4.4 mph SSE7.1 kmh SSE 15.7 mph25.3 kmh 29.86 in1011.2 mb 0.00 in0.0 mm 0.00 in0.0 mm 0.05 in1.3 mm
08:00 AM 57.6°F14.2°C 51.4°F10.8°C 80% 4.3 mph S6.9 kmh S 9.3 mph15.0 kmh 29.86 in1011.2 mb 0.00 in0.0 mm 0.00 in0.0 mm 0.05 in1.3 mm
08:15 AM 58.1°F14.5°C 51.6°F10.9°C 79% 5.4 mph SE8.7 kmh SE 16.5 mph26.6 kmh 29.86 in1011.2 mb 0.00 in0.0 mm 0.00 in0.0 mm 0.05 in1.3 mm
08:30 AM 58.5°F14.7°C 51.3°F10.7°C 77% 5.9 mph SSE9.5 kmh SSE 17.5 mph28.2 kmh 29.86 in1011.2 mb 0.00 in0.0 mm 0.00 in0.0 mm 0.05 in1.3 mm
08:45 AM 58.5°F14.7°C 49.1°F9.5°C 71% 7.7 mph S12.4 kmh S 23.3 mph37.5 kmh 29.86 in1011.2 mb 0.00 in0.0 mm 0.00 in0.0 mm 0.05 in1.3 mm
09:00 AM 58.8°F14.9°C 48.3°F9.1°C 68% 9.0 mph SSE14.5 kmh SSE 21.1 mph34.0 kmh 29.86 in1011.2 mb 0.00 in0.0 mm 0.00 in0.0 mm 0.05 in1.3 mm
09:15 AM 59.4°F15.2°C 48.0°F8.9°C 66% 8.9 mph S14.3 kmh S 26.1 mph42.0 kmh 29.86 in1011.2 mb 0.00 in0.0 mm 0.00 in0.0 mm 0.05 in1.3 mm
09:30 AM 59.4°F15.2°C 48.4°F9.1°C 67% 5.8 mph SSE9.3 kmh SSE 15.0 mph24.1 kmh 29.89 in1012.2 mb 0.00 in0.0 mm 0.00 in0.0 mm 0.05 in1.3 mm
09:45 AM 58.8°F14.9°C 48.3°F9.1°C 68% 7.4 mph SSE11.9 kmh SSE 14.3 mph23.0 kmh 29.86 in1011.2 mb 0.00 in0.0 mm 0.00 in0.0 mm 0.05 in1.3 mm
10:00 AM 58.6°F14.8°C 48.5°F9.2°C 69% 5.0 mph SSE8.0 kmh SSE 12.5 mph20.1 kmh 29.83 in1010.2 mb 0.00 in0.0 mm 0.00 in0.0 mm 0.05 in1.3 mm
10:15 AM 58.5°F14.7°C 48.3°F9.1°C 69% 3.8 mph S6.1 kmh S 9.3 mph15.0 kmh 29.86 in1011.2 mb 0.00 in0.0 mm 0.00 in0.0 mm 0.05 in1.3 mm
10:30 AM 59.5°F15.3°C 49.4°F9.7°C 69% 6.2 mph S10.0 kmh S 12.9 mph20.8 kmh 29.86 in1011.2 mb 0.00 in0.0 mm 0.00 in0.0 mm 0.05 in1.3 mm
10:45 AM 60.4°F15.8°C 50.2°F10.1°C 69% 6.9 mph S11.1 kmh S 17.5 mph28.2 kmh 29.83 in1010.2 mb 0.00 in0.0 mm 0.00 in0.0 mm 0.05 in1.3 mm
11:00 AM 61.0°F16.1°C 50.3°F10.2°C 68% 6.7 mph S10.8 kmh S 12.9 mph20.8 kmh 29.86 in1011.2 mb 0.00 in0.0 mm 0.00 in0.0 mm 0.05 in1.3 mm
11:15 AM 61.3°F16.3°C 50.3°F10.2°C 67% 8.6 mph S13.8 kmh S 27.2 mph43.8 kmh 29.86 in1011.2 mb 0.00 in0.0 mm 0.00 in0.0 mm 0.05 in1.3 mm
11:30 AM 61.7°F16.5°C 50.2°F10.1°C 66% 8.7 mph SSE14.0 kmh SSE 18.3 mph29.5 kmh 29.86 in1011.2 mb 0.00 in0.0 mm 0.00 in0.0 mm 0.05 in1.3 mm
11:45 AM 61.9°F16.6°C 50.0°F10.0°C 65% 7.6 mph S12.2 kmh S 20.4 mph32.8 kmh 29.86 in1011.2 mb 0.00 in0.0 mm 0.00 in0.0 mm 0.05 in1.3 mm
12:00 PM 61.9°F16.6°C 49.6°F9.8°C 64% 7.1 mph S11.4 kmh S 17.2 mph27.7 kmh 29.86 in1011.2 mb 0.00 in0.0 mm 0.00 in0.0 mm 0.05 in1.3 mm
12:15 PM 61.3°F16.3°C 49.1°F9.5°C 64% 7.0 mph SSE11.3 kmh SSE 20.8 mph33.5 kmh 29.86 in1011.2 mb 0.00 in0.0 mm 0.00 in0.0 mm 0.05 in1.3 mm
12:30 PM 60.4°F15.8°C 48.2°F9.0°C 64% 6.1 mph S9.8 kmh S 16.8 mph27.0 kmh 29.83 in1010.2 mb 0.00 in0.0 mm 0.00 in0.0 mm 0.05 in1.3 mm
12:45 PM 60.4°F15.8°C 48.6°F9.2°C 65% 6.4 mph S10.3 kmh S 17.5 mph28.2 kmh 29.86 in1011.2 mb 0.00 in0.0 mm 0.00 in0.0 mm 0.05 in1.3 mm
01:00 PM 60.1°F15.6°C 48.7°F9.3°C 66% 5.3 mph S8.5 kmh S 12.9 mph20.8 kmh 29.83 in1010.2 mb 0.00 in0.0 mm 0.00 in0.0 mm 0.05 in1.3 mm
01:15 PM 60.1°F15.6°C 49.1°F9.5°C 67% 7.9 mph S12.7 kmh S 16.5 mph26.6 kmh 29.86 in1011.2 mb 0.00 in0.0 mm 0.00 in0.0 mm 0.05 in1.3 mm
01:30 PM 61.7°F16.5°C 51.4°F10.8°C 69% 8.5 mph S13.7 kmh S 21.1 mph34.0 kmh 29.86 in1011.2 mb 0.00 in0.0 mm 0.00 in0.0 mm 0.05 in1.3 mm
01:45 PM 62.8°F17.1°C 52.1°F11.2°C 68% 7.5 mph S12.1 kmh S 24.7 mph39.8 kmh 29.83 in1010.2 mb 0.00 in0.0 mm 0.00 in0.0 mm 0.05 in1.3 mm
02:00 PM 63.5°F17.5°C 51.9°F11.1°C 66% 9.7 mph S15.6 kmh S 21.1 mph34.0 kmh 29.86 in1011.2 mb 0.00 in0.0 mm 0.00 in0.0 mm 0.05 in1.3 mm
02:15 PM 63.9°F17.7°C 52.7°F11.5°C 67% 8.3 mph S13.4 kmh S 17.5 mph28.2 kmh 29.86 in1011.2 mb 0.00 in0.0 mm 0.00 in0.0 mm 0.05 in1.3 mm
02:30 PM 62.2°F16.8°C 51.9°F11.1°C 69% 7.2 mph S11.6 kmh S 17.2 mph27.7 kmh 29.86 in1011.2 mb 0.00 in0.0 mm 0.00 in0.0 mm 0.05 in1.3 mm
02:45 PM 62.2°F16.8°C 54.2°F12.3°C 75% 5.6 mph S9.0 kmh S 12.9 mph20.8 kmh 29.86 in1011.2 mb 0.00 in0.0 mm 0.00 in0.0 mm 0.05 in1.3 mm
03:00 PM 61.9°F16.6°C 54.2°F12.3°C 76% 6.4 mph S10.3 kmh S 17.2 mph27.7 kmh 29.89 in1012.2 mb 0.00 in0.0 mm 0.00 in0.0 mm 0.05 in1.3 mm
03:15 PM 61.2°F16.2°C 53.9°F12.2°C 77% 5.8 mph S9.3 kmh S 17.2 mph27.7 kmh 29.86 in1011.2 mb 0.00 in0.0 mm 0.00 in0.0 mm 0.05 in1.3 mm
03:30 PM 60.8°F16.0°C 54.2°F12.3°C 79% 7.4 mph S11.9 kmh S 16.1 mph25.9 kmh 29.89 in1012.2 mb 0.00 in0.0 mm 0.00 in0.0 mm 0.05 in1.3 mm
03:45 PM 62.6°F17.0°C 56.7°F13.7°C 81% 10.1 mph S16.3 kmh S 24.3 mph39.1 kmh 29.89 in1012.2 mb 0.00 in0.0 mm 0.00 in0.0 mm 0.05 in1.3 mm
04:00 PM 63.9°F17.7°C 56.5°F13.6°C 77% 8.4 mph S13.5 kmh S 24.7 mph39.8 kmh 29.92 in1013.2 mb 0.00 in0.0 mm 0.00 in0.0 mm 0.05 in1.3 mm
04:15 PM 63.1°F17.3°C 54.3°F12.4°C 73% 7.9 mph S12.7 kmh S 16.1 mph25.9 kmh 29.92 in1013.2 mb 0.00 in0.0 mm 0.00 in0.0 mm 0.05 in1.3 mm
04:30 PM 62.6°F17.0°C 54.6°F12.6°C 75% 7.8 mph SSW12.6 kmh SSW 16.8 mph27.0 kmh 29.92 in1013.2 mb 0.00 in0.0 mm 0.00 in0.0 mm 0.05 in1.3 mm
04:45 PM 62.4°F16.9°C 54.4°F12.4°C 75% 7.6 mph SSW12.2 kmh SSW 19.3 mph31.1 kmh 29.92 in1013.2 mb 0.00 in0.0 mm 0.00 in0.0 mm 0.05 in1.3 mm
05:00 PM 61.9°F16.6°C 53.9°F12.2°C 75% 7.7 mph S12.4 kmh S 16.5 mph26.6 kmh 29.92 in1013.2 mb 0.00 in0.0 mm 0.00 in0.0 mm 0.05 in1.3 mm
05:15 PM 61.5°F16.4°C 52.4°F11.3°C 72% 8.0 mph S12.9 kmh S 17.5 mph28.2 kmh 29.95 in1014.2 mb 0.00 in0.0 mm 0.00 in0.0 mm 0.05 in1.3 mm
05:30 PM 61.7°F16.5°C 53.3°F11.8°C 74% 5.7 mph S9.2 kmh S 12.9 mph20.8 kmh 29.92 in1013.2 mb 0.00 in0.0 mm 0.00 in0.0 mm 0.05 in1.3 mm
05:45 PM 61.9°F16.6°C 53.9°F12.2°C 75% 5.5 mph S8.9 kmh S 16.1 mph25.9 kmh 29.92 in1013.2 mb 0.00 in0.0 mm 0.00 in0.0 mm 0.05 in1.3 mm
06:00 PM 61.7°F16.5°C 53.7°F12.1°C 75% 5.5 mph S8.9 kmh S 12.2 mph19.6 kmh 29.89 in1012.2 mb 0.00 in0.0 mm 0.00 in0.0 mm 0.05 in1.3 mm
06:15 PM 61.7°F16.5°C 54.1°F12.3°C 76% 5.9 mph S9.5 kmh S 14.0 mph22.5 kmh 29.92 in1013.2 mb 0.00 in0.0 mm 0.00 in0.0 mm 0.05 in1.3 mm
06:30 PM 61.0°F16.1°C 53.7°F12.1°C 77% 5.8 mph S9.3 kmh S 17.9 mph28.8 kmh 29.92 in1013.2 mb 0.00 in0.0 mm 0.00 in0.0 mm 0.05 in1.3 mm
06:45 PM 60.3°F15.7°C 53.7°F12.1°C 79% 6.0 mph S9.7 kmh S 16.8 mph27.0 kmh 29.92 in1013.2 mb 0.00 in0.0 mm 0.00 in0.0 mm 0.05 in1.3 mm
07:00 PM 59.4°F15.2°C 52.8°F11.6°C 79% 4.4 mph S7.1 kmh S 12.5 mph20.1 kmh 29.92 in1013.2 mb 0.00 in0.0 mm 0.00 in0.0 mm 0.05 in1.3 mm
07:15 PM 58.8°F14.9°C 52.3°F11.3°C 79% 5.7 mph S9.2 kmh S 13.6 mph21.9 kmh 29.95 in1014.2 mb 0.00 in0.0 mm 0.00 in0.0 mm 0.00 in0.0 mm
07:25 PM 59.0°F15.0°C 52.5°F11.4°C 79% 1.2 mph S1.9 kmh S 1.4 mph2.3 kmh 29.86 in1011.2 mb 0.00 in0.0 mm 0.00 in0.0 mm 0.00 in0.0 mm
07:30 PM 58.8°F14.9°C 52.0°F11.1°C 78% 5.6 mph SSW9.0 kmh SSW 19.0 mph30.6 kmh 29.95 in1014.2 mb 0.00 in0.0 mm 0.00 in0.0 mm 0.00 in0.0 mm
07:45 PM 59.0°F15.0°C 51.8°F11.0°C 77% 5.5 mph SSW8.9 kmh SSW 14.0 mph22.5 kmh 29.95 in1014.2 mb 0.00 in0.0 mm 0.00 in0.0 mm 0.00 in0.0 mm
08:00 PM 59.2°F15.1°C 52.0°F11.1°C 77% 4.8 mph S7.7 kmh S 15.7 mph25.3 kmh 29.95 in1014.2 mb 0.00 in0.0 mm 0.00 in0.0 mm 0.00 in0.0 mm
08:15 PM 59.2°F15.1°C 52.0°F11.1°C 77% 4.7 mph SSW7.6 kmh SSW 10.4 mph16.7 kmh 29.95 in1014.2 mb 0.00 in0.0 mm 0.00 in0.0 mm 0.00 in0.0 mm
08:30 PM 59.9°F15.5°C 53.0°F11.7°C 78% 6.9 mph S11.1 kmh S 14.0 mph22.5 kmh 29.98 in1015.2 mb 0.00 in0.0 mm 0.00 in0.0 mm 0.00 in0.0 mm
08:45 PM 59.9°F15.5°C 53.4°F11.9°C 79% 6.7 mph S10.8 kmh S 13.6 mph21.9 kmh 29.98 in1015.2 mb 0.00 in0.0 mm 0.00 in0.0 mm 0.00 in0.0 mm
09:00 PM 59.9°F15.5°C 53.7°F12.1°C 80% 7.0 mph S11.3 kmh S 19.7 mph31.7 kmh 29.98 in1015.2 mb 0.00 in0.0 mm 0.00 in0.0 mm 0.00 in0.0 mm
09:15 PM 60.1°F15.6°C 54.2°F12.3°C 81% 6.6 mph S10.6 kmh S 18.3 mph29.5 kmh 29.98 in1015.2 mb 0.00 in0.0 mm 0.00 in0.0 mm 0.00 in0.0 mm
09:30 PM 60.1°F15.6°C 53.9°F12.2°C 80% 7.2 mph S11.6 kmh S 15.4 mph24.8 kmh 29.98 in1015.2 mb 0.00 in0.0 mm 0.00 in0.0 mm 0.00 in0.0 mm
09:45 PM 59.9°F15.5°C 53.7°F12.1°C 80% 6.6 mph S10.6 kmh S 17.2 mph27.7 kmh 29.98 in1015.2 mb 0.00 in0.0 mm 0.00 in0.0 mm 0.00 in0.0 mm
10:00 PM 59.7°F15.4°C 53.5°F11.9°C 80% 7.0 mph S11.3 kmh S 12.9 mph20.8 kmh 29.98 in1015.2 mb 0.00 in0.0 mm 0.00 in0.0 mm 0.00 in0.0 mm
10:15 PM 59.2°F15.1°C 52.7°F11.5°C 79% 5.2 mph S8.4 kmh S 11.8 mph19.0 kmh 29.98 in1015.2 mb 0.00 in0.0 mm 0.00 in0.0 mm 0.00 in0.0 mm
10:30 PM 59.0°F15.0°C 52.5°F11.4°C 79% 4.9 mph S7.9 kmh S 11.5 mph18.5 kmh 29.98 in1015.2 mb 0.00 in0.0 mm 0.00 in0.0 mm 0.00 in0.0 mm
10:45 PM 58.6°F14.8°C 52.5°F11.4°C 80% 2.0 mph S3.2 kmh S 7.9 mph12.7 kmh 29.98 in1015.2 mb 0.00 in0.0 mm 0.00 in0.0 mm 0.00 in0.0 mm
11:00 PM 58.5°F14.7°C 52.6°F11.4°C 81% 5.3 mph S8.5 kmh S 14.0 mph22.5 kmh 29.95 in1014.2 mb 0.00 in0.0 mm 0.00 in0.0 mm 0.00 in0.0 mm
11:15 PM 58.3°F14.6°C 52.5°F11.4°C 81% 4.9 mph S7.9 kmh S 10.4 mph16.7 kmh 29.95 in1014.2 mb 0.00 in0.0 mm 0.00 in0.0 mm 0.00 in0.0 mm
11:30 PM 57.9°F14.4°C 51.8°F11.0°C 80% 2.6 mph SSE4.2 kmh SSE 8.9 mph14.3 kmh 29.95 in1014.2 mb 0.00 in0.0 mm 0.00 in0.0 mm 0.00 in0.0 mm
11:45 PM 57.6°F14.2°C 51.4°F10.8°C 80% 2.8 mph S4.5 kmh S 9.3 mph15.0 kmh 29.98 in1015.2 mb 0.00 in0.0 mm 0.00 in0.0 mm 0.00 in0.0 mm